Forside
METAR-TAF:

METAR-TAF

Lufthavne :

Land O' Lakes, Wisconsin, USA

Breddekreds: 46-09-14N, længdekreds: 089-12-43W, højde: 520 m

Aktuelle vejr

Denne rapport blev lavet for 34 minutter siden, kl. 05:55 UTC
Vind stille
Temperatur 0°C
Fugtighed 100%
Tryk 1022 hPa
Sigt: 16.1 km
skyfri

METAR: KLNL 210555Z AUTO 00000KT 10SM CLR 00/00 A3018 RMK AO2 T00001002 10133 20000 401400000

Tid: 01:29 (06:29 UTC)


TAF: fraværende

Vejrobservationer og prognoser fra mere end 4000 lufthavne (METAR og TAF).

De gule og røde prikker repræsenterer de meteorologiske stationer.

Flyt musen over at se navnet på stationen.

Så klik over at se vejr observationer og prognoser.

At skifte det kort: Klik på de grønne knapper med et sort kors for at zoome ind; på den grønne knap med en bindestreg for at zoome ud; eller på de grønne pile for tilstødende kort.


METAR-TAF: